createdAt,value
2022-11-22T00:00:48.115Z,63.04
2022-11-22T00:03:18.782Z,60.16
2022-11-22T00:05:46.605Z,56.91
2022-11-22T00:08:14.245Z,57.19
2022-11-22T00:10:41.928Z,58.54
2022-11-22T00:13:09.862Z,59.01
2022-11-22T00:15:37.527Z,61.15
2022-11-22T00:18:05.332Z,64.67
2022-11-22T00:20:33.775Z,68.57
2022-11-22T00:23:01.436Z,65.84
2022-11-22T00:25:29.083Z,63.99
2022-11-22T00:27:56.746Z,63.47
2022-11-22T00:30:24.393Z,62.25
2022-11-22T00:32:52.530Z,62.67
2022-11-22T00:35:20.174Z,60.50
2022-11-22T00:37:48.173Z,57.25
2022-11-22T00:40:16.569Z,56.44
2022-11-22T00:42:45.100Z,58.22
2022-11-22T00:45:12.946Z,60.09
2022-11-22T00:47:40.700Z,62.92
2022-11-22T00:50:10.000Z,66.88
2022-11-22T00:52:37.755Z,66.54
2022-11-22T00:55:05.940Z,65.01
2022-11-22T00:57:33.741Z,63.55
2022-11-22T01:00:01.497Z,62.75
2022-11-22T01:02:30.306Z,62.00
2022-11-22T01:04:57.940Z,63.20
2022-11-22T01:07:25.879Z,61.39
2022-11-22T01:09:53.583Z,60.13
2022-11-22T01:12:21.215Z,60.36
2022-11-22T01:14:49.060Z,57.61
2022-11-22T01:17:17.422Z,56.71
2022-11-22T01:19:45.747Z,57.79
2022-11-22T01:22:13.419Z,59.23
2022-11-22T01:24:41.128Z,60.54
2022-11-22T01:27:08.846Z,61.38
2022-11-22T01:29:36.628Z,66.84
2022-11-22T01:32:04.523Z,68.08
2022-11-22T01:34:32.444Z,66.73
2022-11-22T01:37:00.196Z,65.67
2022-11-22T01:39:28.458Z,65.09
2022-11-22T01:41:56.585Z,64.36
2022-11-22T01:44:28.425Z,60.82
2022-11-22T01:47:25.161Z,58.09
2022-11-22T01:50:01.998Z,56.32
2022-11-22T01:52:32.810Z,57.92
2022-11-22T01:55:06.104Z,59.42
2022-11-22T01:57:38.432Z,60.82
2022-11-22T02:00:12.997Z,62.89
2022-11-22T02:02:50.601Z,69.69
2022-11-22T02:05:21.624Z,65.81
2022-11-22T02:07:59.048Z,60.64
2022-11-22T02:10:29.968Z,56.14
2022-11-22T02:13:00.182Z,55.26
2022-11-22T02:15:27.930Z,56.72
2022-11-22T02:17:58.530Z,58.86
2022-11-22T02:20:26.249Z,59.71
2022-11-22T02:23:06.911Z,60.99
2022-11-22T02:25:37.400Z,65.16
2022-11-22T02:28:05.395Z,69.06
2022-11-22T02:30:33.067Z,63.48
2022-11-22T02:33:02.935Z,56.04
2022-11-22T02:35:31.141Z,53.88
2022-11-22T02:38:09.471Z,55.26
2022-11-22T02:40:51.253Z,57.04
2022-11-22T02:43:24.876Z,58.34
2022-11-22T02:45:52.571Z,59.92
2022-11-22T02:48:20.947Z,61.27
2022-11-22T02:50:49.067Z,65.78
2022-11-22T02:53:16.694Z,69.00
2022-11-22T02:55:44.393Z,65.23
2022-11-22T02:58:12.217Z,60.42
2022-11-22T03:00:40.431Z,56.21
2022-11-22T03:03:08.127Z,55.18
2022-11-22T03:05:35.772Z,56.48
2022-11-22T03:08:03.442Z,58.13
2022-11-22T03:10:31.214Z,59.79
2022-11-22T03:12:59.616Z,60.77
2022-11-22T03:15:27.443Z,61.19
2022-11-22T03:18:00.132Z,67.57
2022-11-22T03:20:28.601Z,69.82
2022-11-22T03:22:56.352Z,64.40
2022-11-22T03:25:23.989Z,57.85
2022-11-22T03:27:51.632Z,55.33
2022-11-22T03:30:19.423Z,56.41
2022-11-22T03:32:47.326Z,57.85
2022-11-22T03:35:14.998Z,59.28
2022-11-22T03:37:42.652Z,59.77
2022-11-22T03:40:10.685Z,61.63
2022-11-22T03:42:38.351Z,65.99
2022-11-22T03:45:06.795Z,69.77
2022-11-22T03:47:34.444Z,65.66
2022-11-22T03:50:02.109Z,60.25
2022-11-22T03:52:29.853Z,55.52
2022-11-22T03:54:57.572Z,55.52
2022-11-22T03:57:25.211Z,56.56
2022-11-22T03:59:52.938Z,59.43
2022-11-22T04:02:20.604Z,61.00
2022-11-22T04:04:48.312Z,63.84
2022-11-22T04:07:16.157Z,66.96
2022-11-22T04:09:43.808Z,65.40
2022-11-22T04:12:11.438Z,62.84
2022-11-22T04:14:57.919Z,61.01
2022-11-22T04:17:40.813Z,60.66
2022-11-22T04:20:32.933Z,60.05
2022-11-22T04:23:06.561Z,59.22
2022-11-22T04:25:36.431Z,57.20
2022-11-22T04:28:05.174Z,57.40
2022-11-22T04:30:52.758Z,58.53
2022-11-22T04:33:21.268Z,60.25
2022-11-22T04:35:50.006Z,61.89
2022-11-22T04:38:18.757Z,65.91
2022-11-22T04:40:47.080Z,69.69
2022-11-22T04:43:45.502Z,66.94
2022-11-22T04:46:14.756Z,64.81
2022-11-22T04:48:43.045Z,63.85
2022-11-22T04:51:33.355Z,63.00
2022-11-22T04:54:01.014Z,62.59
2022-11-22T04:56:28.724Z,62.17
2022-11-22T04:58:56.491Z,62.08
2022-11-22T05:01:24.207Z,61.39
2022-11-22T05:03:51.979Z,60.83
2022-11-22T05:06:19.686Z,60.97
2022-11-22T05:08:47.875Z,60.79
2022-11-22T05:11:15.618Z,60.74
2022-11-22T05:13:43.648Z,61.23
2022-11-22T05:16:13.665Z,60.78
2022-11-22T05:18:42.159Z,60.24
2022-11-22T05:21:14.561Z,60.57
2022-11-22T05:23:57.120Z,59.20
2022-11-22T05:26:28.710Z,57.58
2022-11-22T05:28:58.162Z,57.87
2022-11-22T05:31:27.555Z,60.48
2022-11-22T05:33:57.120Z,61.27
2022-11-22T05:36:25.230Z,65.23
2022-11-22T05:38:53.892Z,67.89
2022-11-22T05:41:21.716Z,66.77
2022-11-22T05:43:49.523Z,64.99
2022-11-22T05:46:25.089Z,62.89
2022-11-22T05:48:55.111Z,61.97
2022-11-22T05:51:29.249Z,61.45
2022-11-22T05:54:02.323Z,61.37
2022-11-22T05:56:30.095Z,60.42
2022-11-22T05:58:57.783Z,59.77
2022-11-22T06:01:25.718Z,59.48
2022-11-22T06:03:54.184Z,57.88
2022-11-22T06:06:23.420Z,57.93
2022-11-22T06:08:51.628Z,59.21
2022-11-22T06:11:22.212Z,60.19
2022-11-22T06:13:55.256Z,62.31
2022-11-22T06:16:23.471Z,66.44
2022-11-22T06:18:51.364Z,68.19
2022-11-22T06:21:23.651Z,65.30
2022-11-22T06:23:55.497Z,63.84
2022-11-22T06:26:24.241Z,63.47
2022-11-22T06:28:52.515Z,62.59
2022-11-22T06:31:22.833Z,62.19
2022-11-22T06:33:52.641Z,61.86
2022-11-22T06:36:21.634Z,60.72
2022-11-22T06:38:49.631Z,60.44
2022-11-22T06:41:20.342Z,60.17
2022-11-22T06:43:50.388Z,61.61
2022-11-22T06:46:20.155Z,60.79
2022-11-22T06:48:48.795Z,58.98
2022-11-22T06:51:18.917Z,55.26
2022-11-22T06:53:49.024Z,55.73
2022-11-22T06:56:23.246Z,57.49
2022-11-22T06:58:52.066Z,58.88
2022-11-22T07:01:22.618Z,60.47
2022-11-22T07:03:51.350Z,61.39
2022-11-22T07:06:19.656Z,65.95
2022-11-22T07:08:47.609Z,68.03
2022-11-22T07:11:18.351Z,67.10
2022-11-22T07:13:47.465Z,65.14
2022-11-22T07:16:17.626Z,64.03
2022-11-22T07:18:45.482Z,63.33
2022-11-22T07:21:16.525Z,62.81
2022-11-22T07:23:46.074Z,62.81
2022-11-22T07:26:15.759Z,62.41
2022-11-22T07:28:43.837Z,61.97
2022-11-22T07:31:13.751Z,61.28
2022-11-22T07:33:42.564Z,61.97
2022-11-22T07:36:13.229Z,61.97
2022-11-22T07:38:41.479Z,60.92
2022-11-22T07:41:09.972Z,60.67
2022-11-22T07:43:37.875Z,62.47
2022-11-22T07:46:08.265Z,61.22
2022-11-22T07:48:36.005Z,60.16
2022-11-22T07:51:07.664Z,60.01
2022-11-22T07:53:35.539Z,59.86
2022-11-22T07:56:04.664Z,59.66
2022-11-22T07:58:33.904Z,57.71
2022-11-22T08:01:07.214Z,57.13
2022-11-22T08:03:36.021Z,57.77
2022-11-22T08:06:06.377Z,58.97
2022-11-22T08:08:35.204Z,63.16
2022-11-22T08:11:03.870Z,69.13
2022-11-22T08:13:32.588Z,65.72
2022-11-22T08:16:08.693Z,65.59
2022-11-22T08:18:37.771Z,61.87
2022-11-22T08:21:11.778Z,58.81
2022-11-22T08:23:40.680Z,56.57
2022-11-22T08:26:10.143Z,57.47
2022-11-22T08:28:38.335Z,59.81
2022-11-22T08:31:09.140Z,60.50
2022-11-22T08:33:36.939Z,61.63
2022-11-22T08:36:05.531Z,66.74
2022-11-22T08:38:33.266Z,68.71
2022-11-22T08:41:00.967Z,64.76
2022-11-22T08:43:28.661Z,62.50
2022-11-22T08:45:58.387Z,60.82
2022-11-22T08:48:26.523Z,56.95
2022-11-22T08:50:57.011Z,54.92
2022-11-22T08:53:25.608Z,56.52
2022-11-22T08:55:54.730Z,57.34
2022-11-22T08:58:22.881Z,60.68
2022-11-22T09:00:51.881Z,65.37
2022-11-22T09:03:19.604Z,64.92
2022-11-22T09:08:38.594Z,63.11
2022-11-22T09:11:12.035Z,61.09
2022-11-22T09:13:39.932Z,60.37
2022-11-22T09:16:19.246Z,59.76
2022-11-22T09:18:47.792Z,57.99
2022-11-22T09:21:21.041Z,58.38
2022-11-22T09:23:50.244Z,59.23
2022-11-22T09:26:20.416Z,61.23
2022-11-22T09:28:48.741Z,63.80
2022-11-22T09:31:19.521Z,65.88
2022-11-22T09:33:49.400Z,64.84
2022-11-22T09:36:22.499Z,63.02
2022-11-22T09:38:51.095Z,61.00
2022-11-22T09:41:37.512Z,60.00
2022-11-22T09:44:17.800Z,59.41
2022-11-22T09:46:55.124Z,57.83
2022-11-22T09:49:41.942Z,58.54
2022-11-22T09:52:15.290Z,60.48
2022-11-22T09:54:53.954Z,61.44
2022-11-22T09:57:32.536Z,65.58
2022-11-22T10:00:33.080Z,66.88
2022-11-22T10:03:30.414Z,65.89
2022-11-22T10:06:07.101Z,64.54
2022-11-22T10:08:52.152Z,60.27
2022-11-22T10:11:43.196Z,56.30
2022-11-22T10:14:36.228Z,55.57
2022-11-22T10:17:25.361Z,58.08
2022-11-22T10:20:13.513Z,59.36
2022-11-22T10:22:41.238Z,60.84
2022-11-22T10:25:27.567Z,63.77
2022-11-22T10:28:09.945Z,66.63
2022-11-22T10:30:42.614Z,65.50
2022-11-22T10:33:22.765Z,64.73
2022-11-22T10:36:07.099Z,64.06
2022-11-22T10:38:52.840Z,64.07
2022-11-22T10:41:32.334Z,63.67
2022-11-22T10:44:17.724Z,63.29
2022-11-22T10:47:10.943Z,60.81
2022-11-22T10:49:50.045Z,58.28
2022-11-22T10:52:55.241Z,56.72
2022-11-22T10:55:53.898Z,57.89
2022-11-22T10:58:29.281Z,59.38
2022-11-22T11:01:07.049Z,60.88
2022-11-22T11:03:39.704Z,64.34
2022-11-22T11:06:43.178Z,65.65
2022-11-22T11:12:19.687Z,61.00
2022-11-22T11:14:52.071Z,57.34
2022-11-22T11:17:32.452Z,57.43
2022-11-22T11:20:04.918Z,59.94
2022-11-22T11:23:12.362Z,59.61
2022-11-22T11:25:43.659Z,62.43
2022-11-22T11:28:20.326Z,65.87
2022-11-22T11:31:06.939Z,63.89
2022-11-22T11:33:38.352Z,61.72
2022-11-22T11:36:14.075Z,58.15
2022-11-22T11:38:44.569Z,57.95
2022-11-22T11:41:30.129Z,59.38
2022-11-22T11:44:03.782Z,61.97
2022-11-22T11:46:40.838Z,64.39
2022-11-22T11:49:11.495Z,62.91
2022-11-22T11:51:42.502Z,61.61
2022-11-22T11:54:19.980Z,60.88
2022-11-22T11:56:52.466Z,60.68
2022-11-22T11:59:43.057Z,60.41
2022-11-22T12:02:13.754Z,60.61
2022-11-22T12:04:58.831Z,58.81
2022-11-22T12:07:35.932Z,59.58
2022-11-22T12:10:42.432Z,59.68
2022-11-22T12:13:10.143Z,63.80
2022-11-22T12:15:53.739Z,64.39
2022-11-22T12:18:41.840Z,63.25
2022-11-22T12:21:35.269Z,62.65
2022-11-22T12:24:45.617Z,62.19
2022-11-22T12:27:14.224Z,62.09
2022-11-22T12:29:44.578Z,61.92
2022-11-22T12:32:39.698Z,61.96
2022-11-22T12:35:14.530Z,62.29
2022-11-22T12:37:50.066Z,62.33
2022-11-22T12:40:31.674Z,62.07
2022-11-22T12:43:03.662Z,61.91
2022-11-22T12:46:12.223Z,61.34
2022-11-22T12:48:55.006Z,60.72
2022-11-22T12:51:28.788Z,60.46
2022-11-22T12:54:02.012Z,60.85
2022-11-22T12:56:44.195Z,59.87
2022-11-22T12:59:11.901Z,60.01
2022-11-22T13:01:47.756Z,59.82
2022-11-22T13:04:22.756Z,58.69
2022-11-22T13:07:15.666Z,59.63
2022-11-22T13:09:55.632Z,62.77
2022-11-22T13:12:31.007Z,65.07
2022-11-22T13:14:59.593Z,61.17
2022-11-22T13:17:34.176Z,55.73
2022-11-22T13:20:06.228Z,55.24
2022-11-22T13:22:52.071Z,57.21
2022-11-22T13:25:42.936Z,61.44
2022-11-22T13:28:25.736Z,64.66
2022-11-22T13:31:12.000Z,64.35
2022-11-22T13:33:53.646Z,61.09
2022-11-22T13:36:27.445Z,57.25
2022-11-22T13:39:03.319Z,56.36
2022-11-22T13:41:58.733Z,58.17
2022-11-22T13:44:33.142Z,60.53
2022-11-22T13:47:25.117Z,64.02
2022-11-22T13:49:54.123Z,65.47
2022-11-22T13:52:22.276Z,63.18
2022-11-22T13:54:49.973Z,62.76
2022-11-22T13:57:42.558Z,62.69
2022-11-22T14:00:13.936Z,62.64
2022-11-22T14:02:43.525Z,62.54
2022-11-22T14:05:19.772Z,62.91
2022-11-22T14:07:56.324Z,63.45
2022-11-22T14:10:27.159Z,60.74
2022-11-22T14:13:13.677Z,57.16
2022-11-22T14:15:55.048Z,57.24
2022-11-22T14:18:50.891Z,59.56
2022-11-22T14:21:40.284Z,61.44
2022-11-22T14:24:14.157Z,67.37
2022-11-22T14:26:41.885Z,67.42
2022-11-22T14:29:37.396Z,60.07
2022-11-22T14:32:16.175Z,55.40
2022-11-22T14:35:05.837Z,56.04
2022-11-22T14:37:43.892Z,60.26
2022-11-22T14:40:26.785Z,61.85
2022-11-22T14:42:57.528Z,67.06
2022-11-22T14:45:35.982Z,66.11
2022-11-22T14:48:20.358Z,60.78
2022-11-22T14:50:56.195Z,56.93
2022-11-22T14:53:33.515Z,57.50
2022-11-22T14:56:20.143Z,60.90
2022-11-22T14:59:25.967Z,66.68
2022-11-22T15:02:07.513Z,65.44
2022-11-22T15:09:18.219Z,57.79
2022-11-22T15:09:21.188Z,54.27
2022-11-22T15:11:16.040Z,57.82
2022-11-22T15:14:02.578Z,59.59
2022-11-22T15:59:43.364Z,66.10
2022-11-22T16:02:22.602Z,62.98
2022-11-22T16:06:05.694Z,61.30
2022-11-22T16:08:00.922Z,60.69
2022-11-22T16:10:33.200Z,60.37
2022-11-22T16:13:32.103Z,59.12
2022-11-22T16:16:03.962Z,60.52
2022-11-22T16:18:31.989Z,63.89
2022-11-22T16:21:04.256Z,65.16
2022-11-22T16:23:34.956Z,63.46
2022-11-22T16:26:18.992Z,61.21
2022-11-22T16:28:48.371Z,58.14
2022-11-22T16:31:29.929Z,56.97
2022-11-22T16:33:58.236Z,60.81
2022-11-22T16:36:29.759Z,64.74
2022-11-22T16:38:57.771Z,63.73
2022-11-22T16:41:27.997Z,61.51
2022-11-22T16:44:10.377Z,60.59
2022-11-22T16:46:39.978Z,59.41
2022-11-22T16:49:19.170Z,58.19
2022-11-22T16:51:48.555Z,60.93
2022-11-22T16:54:19.491Z,65.13
2022-11-22T16:56:47.658Z,64.37
2022-11-22T16:59:15.852Z,61.82
2022-11-22T17:01:44.234Z,59.31
2022-11-22T17:04:23.794Z,57.51
2022-11-22T17:06:51.948Z,59.60
2022-11-22T17:09:19.868Z,63.78
2022-11-22T17:11:47.830Z,64.73
2022-11-22T17:14:17.037Z,62.57
2022-11-22T17:16:46.431Z,59.45
2022-11-22T17:19:37.348Z,58.23
2022-11-22T17:22:02.324Z,62.15
2022-11-22T17:24:30.365Z,65.78
2022-11-22T17:26:58.723Z,63.00
2022-11-22T17:32:15.203Z,59.27
2022-11-22T17:34:42.912Z,61.99
2022-11-22T17:37:12.192Z,65.25
2022-11-22T17:39:40.633Z,64.28
2022-11-22T17:42:08.774Z,61.00
2022-11-22T17:44:36.485Z,59.03
2022-11-22T17:47:04.326Z,58.04
2022-11-22T17:49:32.325Z,60.38
2022-11-22T17:52:00.645Z,64.47
2022-11-22T17:54:28.371Z,66.04
2022-11-22T17:56:56.293Z,64.26
2022-11-22T17:59:23.985Z,61.46
2022-11-22T18:01:51.754Z,58.82
2022-11-22T18:04:19.409Z,58.90
2022-11-22T18:06:47.183Z,61.47
2022-11-22T18:09:14.964Z,66.14
2022-11-22T18:11:43.542Z,65.47
2022-11-22T18:14:11.470Z,63.17
2022-11-22T18:16:39.344Z,62.12
2022-11-22T18:19:12.825Z,61.52
2022-11-22T18:21:40.505Z,61.51
2022-11-22T18:24:08.536Z,59.77
2022-11-22T18:26:40.634Z,56.53
2022-11-22T18:31:58.219Z,60.64
2022-11-22T18:34:27.611Z,61.34
2022-11-22T18:37:00.904Z,65.61
2022-11-22T18:39:36.740Z,66.53
2022-11-22T18:42:06.979Z,64.35
2022-11-22T18:44:34.728Z,62.36
2022-11-22T18:47:03.072Z,61.22
2022-11-22T18:49:31.249Z,60.28
2022-11-22T18:51:59.502Z,58.43
2022-11-22T18:54:27.189Z,56.95
2022-11-22T18:56:57.333Z,58.71
2022-11-22T18:59:25.134Z,61.23
2022-11-22T19:01:52.900Z,64.75
2022-11-22T19:04:20.634Z,67.36
2022-11-22T19:06:48.285Z,66.07
2022-11-22T19:09:16.056Z,62.98
2022-11-22T19:11:43.795Z,60.87
2022-11-22T19:14:11.551Z,58.05
2022-11-22T19:16:39.426Z,56.69
2022-11-22T19:19:10.547Z,58.64
2022-11-22T19:21:38.217Z,60.80
2022-11-22T19:24:06.262Z,63.43
2022-11-22T19:26:34.196Z,67.13
2022-11-22T19:29:02.719Z,64.48
2022-11-22T19:31:31.685Z,62.77
2022-11-22T19:34:00.201Z,62.14
2022-11-22T19:36:36.089Z,60.94
2022-11-22T19:39:05.351Z,57.76
2022-11-22T19:41:33.812Z,58.10
2022-11-22T19:44:02.363Z,61.50
2022-11-22T19:46:30.431Z,64.48
2022-11-22T19:49:01.388Z,65.62
2022-11-22T19:51:31.105Z,63.94
2022-11-22T19:54:21.783Z,62.18
2022-11-22T19:56:50.477Z,60.71
2022-11-22T19:59:18.386Z,59.82
2022-11-22T20:01:46.402Z,57.87
2022-11-22T20:04:15.704Z,58.38
2022-11-22T20:06:48.584Z,59.87
2022-11-22T20:09:17.896Z,61.36
2022-11-22T20:11:47.024Z,65.23
2022-11-22T20:14:15.871Z,67.62
2022-11-22T20:16:44.066Z,65.92
2022-11-22T20:19:14.870Z,62.82
2022-11-22T20:21:42.888Z,61.27
2022-11-22T20:24:11.623Z,59.54
2022-11-22T20:26:39.349Z,56.20
2022-11-22T20:29:11.930Z,56.72
2022-11-22T20:31:40.934Z,60.72
2022-11-22T20:34:10.073Z,63.18
2022-11-22T20:36:37.905Z,66.63
2022-11-22T20:39:10.885Z,64.64
2022-11-22T20:41:40.078Z,62.57
2022-11-22T20:44:12.506Z,60.74
2022-11-22T20:46:41.206Z,59.82
2022-11-22T20:49:09.396Z,58.24
2022-11-22T20:51:39.802Z,57.51
2022-11-22T20:54:08.592Z,60.89
2022-11-22T20:56:37.544Z,63.86
2022-11-22T20:59:05.559Z,65.46
2022-11-22T21:01:33.857Z,64.28
2022-11-22T21:04:01.770Z,63.11
2022-11-22T21:06:29.479Z,61.69
2022-11-22T21:08:57.452Z,61.13
2022-11-22T21:11:36.693Z,60.44
2022-11-22T21:14:04.558Z,59.78
2022-11-22T21:16:32.508Z,58.42
2022-11-22T21:19:02.046Z,57.06
2022-11-22T21:21:31.014Z,58.20
2022-11-22T21:24:00.971Z,60.50
2022-11-22T21:26:29.858Z,64.90
2022-11-22T21:28:59.454Z,67.22
2022-11-22T21:31:28.048Z,66.04
2022-11-22T21:33:55.947Z,64.93
2022-11-22T21:36:23.734Z,62.88
2022-11-22T21:38:51.696Z,61.64
2022-11-22T21:41:39.215Z,60.48
2022-11-22T21:44:08.960Z,57.58
2022-11-22T21:46:37.164Z,57.99
2022-11-22T21:49:05.285Z,58.75
2022-11-22T21:51:32.940Z,60.65
2022-11-22T21:54:01.959Z,64.94
2022-11-22T21:56:29.844Z,67.86
2022-11-22T21:58:57.760Z,66.20
2022-11-22T22:01:25.994Z,63.26
2022-11-22T22:03:54.204Z,61.75
2022-11-22T22:06:22.317Z,61.35
2022-11-22T22:08:49.981Z,61.44
2022-11-22T22:11:17.952Z,59.12
2022-11-22T22:13:45.836Z,55.70
2022-11-22T22:16:19.228Z,56.11
2022-11-22T22:18:47.459Z,57.94
2022-11-22T22:21:16.560Z,59.78
2022-11-22T22:23:45.320Z,65.17
2022-11-22T22:26:15.578Z,67.18
2022-11-22T22:28:45.079Z,64.60
2022-11-22T22:31:21.785Z,62.08
2022-11-22T22:33:55.528Z,60.75
2022-11-22T22:36:25.637Z,60.13
2022-11-22T22:38:54.333Z,58.51
2022-11-22T22:41:22.233Z,57.68
2022-11-22T22:43:50.175Z,60.41
2022-11-22T22:46:20.426Z,62.54
2022-11-22T22:48:49.364Z,66.53
2022-11-22T22:51:19.777Z,66.95
2022-11-22T22:53:48.263Z,65.44
2022-11-22T22:56:18.365Z,63.73
2022-11-22T22:58:46.369Z,61.63
2022-11-22T23:01:17.509Z,61.07
2022-11-22T23:03:54.142Z,60.10
2022-11-22T23:06:22.417Z,58.20
2022-11-22T23:08:51.941Z,57.93
2022-11-22T23:11:41.235Z,60.92
2022-11-22T23:14:09.165Z,65.10
2022-11-22T23:16:38.833Z,66.25
2022-11-22T23:19:08.044Z,64.30
2022-11-22T23:21:36.319Z,62.51
2022-11-22T23:24:05.104Z,61.64
2022-11-22T23:26:32.867Z,60.59
2022-11-22T23:29:01.028Z,59.10
2022-11-22T23:31:28.709Z,58.06
2022-11-22T23:33:56.546Z,58.50
2022-11-22T23:36:24.249Z,61.66
2022-11-22T23:38:52.021Z,66.07
2022-11-22T23:41:22.622Z,68.01
2022-11-22T23:43:55.138Z,65.64
2022-11-22T23:46:26.407Z,63.43
2022-11-22T23:48:57.198Z,61.95
2022-11-22T23:51:26.475Z,60.80
2022-11-22T23:53:55.762Z,60.10
2022-11-22T23:56:23.772Z,58.43
2022-11-22T23:58:52.793Z,58.97
